sensor_id;sensor_type;location;lat;lon;timestamp;P1;durP1;ratioP1;P2;durP2;ratioP2
21315;SDS011;10817;55.820;13.030;2023-01-26T00:00:47;66.43;;;19.70;;
21315;SDS011;10817;55.820;13.030;2023-01-26T00:03:14;72.85;;;20.50;;
21315;SDS011;10817;55.820;13.030;2023-01-26T00:05:41;78.15;;;19.35;;
21315;SDS011;10817;55.820;13.030;2023-01-26T00:08:08;68.18;;;18.90;;
21315;SDS011;10817;55.820;13.030;2023-01-26T00:10:36;72.22;;;19.88;;
21315;SDS011;10817;55.820;13.030;2023-01-26T00:13:04;69.13;;;19.95;;
21315;SDS011;10817;55.820;13.030;2023-01-26T00:15:32;68.80;;;20.08;;
21315;SDS011;10817;55.820;13.030;2023-01-26T00:18:00;70.22;;;20.80;;
21315;SDS011;10817;55.820;13.030;2023-01-26T00:20:27;74.18;;;22.30;;
21315;SDS011;10817;55.820;13.030;2023-01-26T00:22:55;73.22;;;21.52;;
21315;SDS011;10817;55.820;13.030;2023-01-26T00:25:22;75.70;;;22.52;;
21315;SDS011;10817;55.820;13.030;2023-01-26T00:27:49;75.57;;;21.67;;
21315;SDS011;10817;55.820;13.030;2023-01-26T00:30:16;71.00;;;21.00;;
21315;SDS011;10817;55.820;13.030;2023-01-26T00:32:46;70.50;;;20.20;;
21315;SDS011;10817;55.820;13.030;2023-01-26T00:35:14;70.25;;;20.83;;
21315;SDS011;10817;55.820;13.030;2023-01-26T00:37:42;74.68;;;21.55;;
21315;SDS011;10817;55.820;13.030;2023-01-26T00:40:10;61.70;;;19.35;;
21315;SDS011;10817;55.820;13.030;2023-01-26T00:42:37;58.95;;;18.42;;
21315;SDS011;10817;55.820;13.030;2023-01-26T00:45:05;67.97;;;20.52;;
21315;SDS011;10817;55.820;13.030;2023-01-26T00:47:32;60.42;;;20.13;;
21315;SDS011;10817;55.820;13.030;2023-01-26T00:50:00;65.20;;;21.20;;
21315;SDS011;10817;55.820;13.030;2023-01-26T00:52:28;72.63;;;22.27;;
21315;SDS011;10817;55.820;13.030;2023-01-26T00:54:55;70.53;;;21.75;;
21315;SDS011;10817;55.820;13.030;2023-01-26T00:57:23;66.43;;;20.77;;
21315;SDS011;10817;55.820;13.030;2023-01-26T00:59:50;69.25;;;21.00;;
21315;SDS011;10817;55.820;13.030;2023-01-26T01:02:17;68.60;;;20.52;;
21315;SDS011;10817;55.820;13.030;2023-01-26T01:04:47;70.15;;;21.63;;
21315;SDS011;10817;55.820;13.030;2023-01-26T01:07:16;73.60;;;22.60;;
21315;SDS011;10817;55.820;13.030;2023-01-26T01:09:43;75.88;;;22.15;;
21315;SDS011;10817;55.820;13.030;2023-01-26T01:12:11;68.57;;;21.02;;
21315;SDS011;10817;55.820;13.030;2023-01-26T01:14:38;65.47;;;21.50;;
21315;SDS011;10817;55.820;13.030;2023-01-26T01:17:06;62.03;;;20.10;;
21315;SDS011;10817;55.820;13.030;2023-01-26T01:19:33;67.22;;;20.58;;
21315;SDS011;10817;55.820;13.030;2023-01-26T01:22:00;61.58;;;20.13;;
21315;SDS011;10817;55.820;13.030;2023-01-26T01:24:29;73.75;;;20.88;;
21315;SDS011;10817;55.820;13.030;2023-01-26T01:26:58;65.40;;;20.00;;
21315;SDS011;10817;55.820;13.030;2023-01-26T01:29:25;62.30;;;19.55;;
21315;SDS011;10817;55.820;13.030;2023-01-26T01:31:52;60.40;;;18.67;;
21315;SDS011;10817;55.820;13.030;2023-01-26T01:34:20;64.18;;;20.13;;
21315;SDS011;10817;55.820;13.030;2023-01-26T01:36:47;56.35;;;19.20;;
21315;SDS011;10817;55.820;13.030;2023-01-26T01:39:14;55.65;;;18.08;;
21315;SDS011;10817;55.820;13.030;2023-01-26T01:41:43;57.97;;;18.83;;
21315;SDS011;10817;55.820;13.030;2023-01-26T01:44:11;57.63;;;19.23;;
21315;SDS011;10817;55.820;13.030;2023-01-26T01:46:38;57.60;;;17.75;;
21315;SDS011;10817;55.820;13.030;2023-01-26T01:49:07;59.40;;;18.63;;
21315;SDS011;10817;55.820;13.030;2023-01-26T01:51:38;56.17;;;19.00;;
21315;SDS011;10817;55.820;13.030;2023-01-26T01:54:07;58.53;;;17.40;;
21315;SDS011;10817;55.820;13.030;2023-01-26T01:56:36;51.28;;;16.10;;
21315;SDS011;10817;55.820;13.030;2023-01-26T01:59:06;52.58;;;16.33;;
21315;SDS011;10817;55.820;13.030;2023-01-26T02:01:35;48.35;;;15.80;;
21315;SDS011;10817;55.820;13.030;2023-01-26T02:04:03;51.05;;;15.40;;
21315;SDS011;10817;55.820;13.030;2023-01-26T02:06:32;46.53;;;14.55;;
21315;SDS011;10817;55.820;13.030;2023-01-26T02:09:02;46.88;;;14.82;;
21315;SDS011;10817;55.820;13.030;2023-01-26T02:11:32;47.05;;;15.45;;
21315;SDS011;10817;55.820;13.030;2023-01-26T02:14:01;50.88;;;15.60;;
21315;SDS011;10817;55.820;13.030;2023-01-26T02:16:30;47.25;;;14.20;;
21315;SDS011;10817;55.820;13.030;2023-01-26T02:18:57;47.63;;;15.43;;
21315;SDS011;10817;55.820;13.030;2023-01-26T02:21:25;47.53;;;14.35;;
21315;SDS011;10817;55.820;13.030;2023-01-26T02:23:56;48.13;;;15.10;;
21315;SDS011;10817;55.820;13.030;2023-01-26T02:26:26;42.92;;;14.57;;
21315;SDS011;10817;55.820;13.030;2023-01-26T02:28:54;43.72;;;13.88;;
21315;SDS011;10817;55.820;13.030;2023-01-26T02:31:22;46.58;;;15.60;;
21315;SDS011;10817;55.820;13.030;2023-01-26T02:33:50;39.33;;;13.73;;
21315;SDS011;10817;55.820;13.030;2023-01-26T02:36:19;42.90;;;13.40;;
21315;SDS011;10817;55.820;13.030;2023-01-26T02:38:50;39.60;;;12.85;;
21315;SDS011;10817;55.820;13.030;2023-01-26T02:41:19;44.47;;;14.35;;
21315;SDS011;10817;55.820;13.030;2023-01-26T02:44:01;42.00;;;14.27;;
21315;SDS011;10817;55.820;13.030;2023-01-26T02:46:31;46.50;;;14.23;;
21315;SDS011;10817;55.820;13.030;2023-01-26T02:48:58;43.35;;;14.05;;
21315;SDS011;10817;55.820;13.030;2023-01-26T02:51:43;49.03;;;13.85;;
21315;SDS011;10817;55.820;13.030;2023-01-26T02:54:10;53.08;;;15.60;;
21315;SDS011;10817;55.820;13.030;2023-01-26T02:56:59;52.03;;;15.57;;
21315;SDS011;10817;55.820;13.030;2023-01-26T02:59:27;46.20;;;14.73;;
21315;SDS011;10817;55.820;13.030;2023-01-26T03:01:54;56.40;;;16.73;;
21315;SDS011;10817;55.820;13.030;2023-01-26T03:04:22;51.25;;;15.18;;
21315;SDS011;10817;55.820;13.030;2023-01-26T03:06:50;46.50;;;14.02;;
21315;SDS011;10817;55.820;13.030;2023-01-26T03:09:18;44.60;;;14.52;;
21315;SDS011;10817;55.820;13.030;2023-01-26T03:11:45;42.13;;;13.75;;
21315;SDS011;10817;55.820;13.030;2023-01-26T03:14:15;48.92;;;14.93;;
21315;SDS011;10817;55.820;13.030;2023-01-26T03:16:43;44.00;;;14.75;;
21315;SDS011;10817;55.820;13.030;2023-01-26T03:19:11;46.55;;;15.52;;
21315;SDS011;10817;55.820;13.030;2023-01-26T03:21:56;44.50;;;13.73;;
21315;SDS011;10817;55.820;13.030;2023-01-26T03:24:42;48.28;;;14.80;;
21315;SDS011;10817;55.820;13.030;2023-01-26T03:27:27;48.85;;;14.07;;
21315;SDS011;10817;55.820;13.030;2023-01-26T03:30:00;40.83;;;13.95;;
21315;SDS011;10817;55.820;13.030;2023-01-26T03:32:29;50.08;;;15.05;;
21315;SDS011;10817;55.820;13.030;2023-01-26T03:34:58;42.47;;;13.10;;
21315;SDS011;10817;55.820;13.030;2023-01-26T03:37:25;43.72;;;14.07;;
21315;SDS011;10817;55.820;13.030;2023-01-26T03:40:02;40.58;;;13.48;;
21315;SDS011;10817;55.820;13.030;2023-01-26T03:42:49;42.10;;;14.27;;
21315;SDS011;10817;55.820;13.030;2023-01-26T03:45:34;46.55;;;14.98;;
21315;SDS011;10817;55.820;13.030;2023-01-26T03:48:23;45.65;;;14.68;;
21315;SDS011;10817;55.820;13.030;2023-01-26T03:51:08;38.85;;;12.75;;
21315;SDS011;10817;55.820;13.030;2023-01-26T03:53:54;48.92;;;13.82;;
21315;SDS011;10817;55.820;13.030;2023-01-26T03:56:39;40.08;;;13.70;;
21315;SDS011;10817;55.820;13.030;2023-01-26T03:59:12;38.38;;;13.65;;
21315;SDS011;10817;55.820;13.030;2023-01-26T04:01:41;41.20;;;13.32;;
21315;SDS011;10817;55.820;13.030;2023-01-26T04:04:28;40.67;;;13.00;;
21315;SDS011;10817;55.820;13.030;2023-01-26T04:07:14;40.10;;;13.85;;
21315;SDS011;10817;55.820;13.030;2023-01-26T04:09:59;39.63;;;12.98;;
21315;SDS011;10817;55.820;13.030;2023-01-26T04:12:28;45.13;;;14.48;;
21315;SDS011;10817;55.820;13.030;2023-01-26T04:15:06;45.40;;;14.23;;
21315;SDS011;10817;55.820;13.030;2023-01-26T04:17:51;38.40;;;12.35;;
21315;SDS011;10817;55.820;13.030;2023-01-26T04:20:38;34.97;;;12.50;;
21315;SDS011;10817;55.820;13.030;2023-01-26T04:23:23;38.92;;;13.45;;
21315;SDS011;10817;55.820;13.030;2023-01-26T04:25:50;34.20;;;12.77;;
21315;SDS011;10817;55.820;13.030;2023-01-26T04:28:18;30.52;;;11.48;;
21315;SDS011;10817;55.820;13.030;2023-01-26T04:30:46;38.33;;;12.65;;
21315;SDS011;10817;55.820;13.030;2023-01-26T04:33:15;33.85;;;11.98;;
21315;SDS011;10817;55.820;13.030;2023-01-26T04:35:44;35.58;;;11.60;;
21315;SDS011;10817;55.820;13.030;2023-01-26T04:38:11;37.28;;;12.32;;
21315;SDS011;10817;55.820;13.030;2023-01-26T04:40:40;38.80;;;12.15;;
21315;SDS011;10817;55.820;13.030;2023-01-26T04:43:09;35.25;;;12.15;;
21315;SDS011;10817;55.820;13.030;2023-01-26T04:45:36;33.65;;;11.63;;
21315;SDS011;10817;55.820;13.030;2023-01-26T04:48:04;36.00;;;12.00;;
21315;SDS011;10817;55.820;13.030;2023-01-26T04:50:31;36.45;;;12.25;;
21315;SDS011;10817;55.820;13.030;2023-01-26T04:53:01;39.15;;;12.77;;
21315;SDS011;10817;55.820;13.030;2023-01-26T04:55:30;35.42;;;12.73;;
21315;SDS011;10817;55.820;13.030;2023-01-26T04:57:58;35.80;;;12.45;;
21315;SDS011;10817;55.820;13.030;2023-01-26T05:00:25;35.25;;;12.80;;
21315;SDS011;10817;55.820;13.030;2023-01-26T05:02:54;33.97;;;12.35;;
21315;SDS011;10817;55.820;13.030;2023-01-26T05:05:22;31.88;;;11.48;;
21315;SDS011;10817;55.820;13.030;2023-01-26T05:07:49;36.38;;;11.95;;
21315;SDS011;10817;55.820;13.030;2023-01-26T05:10:19;29.65;;;11.73;;
21315;SDS011;10817;55.820;13.030;2023-01-26T05:13:02;29.20;;;11.05;;
21315;SDS011;10817;55.820;13.030;2023-01-26T05:15:32;29.73;;;11.13;;
21315;SDS011;10817;55.820;13.030;2023-01-26T05:18:10;32.63;;;11.43;;
21315;SDS011;10817;55.820;13.030;2023-01-26T05:20:46;35.50;;;11.65;;
21315;SDS011;10817;55.820;13.030;2023-01-26T05:23:16;28.23;;;10.68;;
21315;SDS011;10817;55.820;13.030;2023-01-26T05:26:03;27.98;;;10.23;;
21315;SDS011;10817;55.820;13.030;2023-01-26T05:28:41;28.15;;;10.88;;
21315;SDS011;10817;55.820;13.030;2023-01-26T05:31:08;24.95;;;10.18;;
21315;SDS011;10817;55.820;13.030;2023-01-26T05:33:36;29.20;;;11.20;;
21315;SDS011;10817;55.820;13.030;2023-01-26T05:36:05;25.65;;;10.65;;
21315;SDS011;10817;55.820;13.030;2023-01-26T05:38:33;28.42;;;11.35;;
21315;SDS011;10817;55.820;13.030;2023-01-26T05:41:02;27.42;;;10.35;;
21315;SDS011;10817;55.820;13.030;2023-01-26T05:43:38;24.55;;;10.73;;
21315;SDS011;10817;55.820;13.030;2023-01-26T05:46:31;24.38;;;10.23;;
21315;SDS011;10817;55.820;13.030;2023-01-26T05:48:58;24.55;;;10.73;;
21315;SDS011;10817;55.820;13.030;2023-01-26T05:51:25;26.77;;;10.82;;
21315;SDS011;10817;55.820;13.030;2023-01-26T05:53:53;27.35;;;11.57;;
21315;SDS011;10817;55.820;13.030;2023-01-26T05:56:21;26.70;;;10.88;;
21315;SDS011;10817;55.820;13.030;2023-01-26T05:58:53;28.35;;;11.25;;
21315;SDS011;10817;55.820;13.030;2023-01-26T06:01:21;26.50;;;11.32;;
21315;SDS011;10817;55.820;13.030;2023-01-26T06:03:55;30.45;;;11.63;;
21315;SDS011;10817;55.820;13.030;2023-01-26T06:06:24;23.90;;;10.68;;
21315;SDS011;10817;55.820;13.030;2023-01-26T06:09:00;25.85;;;11.07;;
21315;SDS011;10817;55.820;13.030;2023-01-26T06:11:32;26.33;;;11.63;;
21315;SDS011;10817;55.820;13.030;2023-01-26T06:14:34;29.20;;;11.52;;
21315;SDS011;10817;55.820;13.030;2023-01-26T06:17:02;26.27;;;11.93;;
21315;SDS011;10817;55.820;13.030;2023-01-26T06:19:29;28.02;;;11.70;;
21315;SDS011;10817;55.820;13.030;2023-01-26T06:21:59;26.52;;;11.60;;
21315;SDS011;10817;55.820;13.030;2023-01-26T06:24:27;30.70;;;12.77;;
21315;SDS011;10817;55.820;13.030;2023-01-26T06:26:56;28.95;;;11.40;;
21315;SDS011;10817;55.820;13.030;2023-01-26T06:29:24;27.23;;;11.45;;
21315;SDS011;10817;55.820;13.030;2023-01-26T06:31:52;24.65;;;12.23;;
21315;SDS011;10817;55.820;13.030;2023-01-26T06:34:20;32.03;;;12.18;;
21315;SDS011;10817;55.820;13.030;2023-01-26T06:36:47;29.85;;;13.45;;
21315;SDS011;10817;55.820;13.030;2023-01-26T06:39:22;31.67;;;12.52;;
21315;SDS011;10817;55.820;13.030;2023-01-26T06:41:49;27.50;;;12.43;;
21315;SDS011;10817;55.820;13.030;2023-01-26T06:44:18;36.03;;;13.98;;
21315;SDS011;10817;55.820;13.030;2023-01-26T06:46:45;42.97;;;15.02;;
21315;SDS011;10817;55.820;13.030;2023-01-26T06:49:12;40.65;;;15.85;;
21315;SDS011;10817;55.820;13.030;2023-01-26T06:51:45;42.92;;;17.10;;
21315;SDS011;10817;55.820;13.030;2023-01-26T06:54:14;39.53;;;14.15;;
21315;SDS011;10817;55.820;13.030;2023-01-26T06:57:00;41.95;;;15.00;;
21315;SDS011;10817;55.820;13.030;2023-01-26T07:00:01;42.28;;;14.00;;
21315;SDS011;10817;55.820;13.030;2023-01-26T07:02:43;46.42;;;14.88;;
21315;SDS011;10817;55.820;13.030;2023-01-26T07:05:10;45.13;;;14.52;;
21315;SDS011;10817;55.820;13.030;2023-01-26T07:07:37;50.08;;;15.48;;
21315;SDS011;10817;55.820;13.030;2023-01-26T07:10:05;44.63;;;14.43;;
21315;SDS011;10817;55.820;13.030;2023-01-26T07:12:38;51.15;;;16.27;;
21315;SDS011;10817;55.820;13.030;2023-01-26T07:15:08;54.67;;;14.07;;
21315;SDS011;10817;55.820;13.030;2023-01-26T07:17:36;58.75;;;15.75;;
21315;SDS011;10817;55.820;13.030;2023-01-26T07:20:03;68.30;;;15.27;;
21315;SDS011;10817;55.820;13.030;2023-01-26T07:22:33;73.03;;;18.20;;
21315;SDS011;10817;55.820;13.030;2023-01-26T07:25:00;48.03;;;15.88;;
21315;SDS011;10817;55.820;13.030;2023-01-26T07:27:28;61.90;;;14.98;;
21315;SDS011;10817;55.820;13.030;2023-01-26T07:29:55;66.20;;;15.18;;
21315;SDS011;10817;55.820;13.030;2023-01-26T07:32:23;64.43;;;16.35;;
21315;SDS011;10817;55.820;13.030;2023-01-26T07:34:50;55.83;;;13.73;;
21315;SDS011;10817;55.820;13.030;2023-01-26T07:37:18;64.05;;;15.68;;
21315;SDS011;10817;55.820;13.030;2023-01-26T07:39:45;57.78;;;15.23;;
21315;SDS011;10817;55.820;13.030;2023-01-26T07:42:13;54.10;;;15.93;;
21315;SDS011;10817;55.820;13.030;2023-01-26T07:44:56;50.47;;;15.27;;
21315;SDS011;10817;55.820;13.030;2023-01-26T07:47:25;69.00;;;16.02;;
21315;SDS011;10817;55.820;13.030;2023-01-26T07:49:52;49.42;;;15.25;;
21315;SDS011;10817;55.820;13.030;2023-01-26T07:52:19;57.47;;;14.77;;
21315;SDS011;10817;55.820;13.030;2023-01-26T07:54:46;72.20;;;14.43;;
21315;SDS011;10817;55.820;13.030;2023-01-26T07:57:15;40.63;;;15.05;;
21315;SDS011;10817;55.820;13.030;2023-01-26T07:59:42;53.13;;;16.20;;
21315;SDS011;10817;55.820;13.030;2023-01-26T08:02:10;48.35;;;15.35;;
21315;SDS011;10817;55.820;13.030;2023-01-26T08:04:38;65.88;;;15.05;;
21315;SDS011;10817;55.820;13.030;2023-01-26T08:07:05;60.22;;;14.98;;
21315;SDS011;10817;55.820;13.030;2023-01-26T08:09:32;51.95;;;15.43;;
21315;SDS011;10817;55.820;13.030;2023-01-26T08:12:00;49.70;;;14.73;;
21315;SDS011;10817;55.820;13.030;2023-01-26T08:14:27;60.92;;;15.07;;
21315;SDS011;10817;55.820;13.030;2023-01-26T08:16:54;124.65;;;16.05;;
21315;SDS011;10817;55.820;13.030;2023-01-26T08:19:21;97.15;;;17.30;;
21315;SDS011;10817;55.820;13.030;2023-01-26T08:21:49;127.10;;;18.92;;
21315;SDS011;10817;55.820;13.030;2023-01-26T08:24:18;95.20;;;18.52;;
21315;SDS011;10817;55.820;13.030;2023-01-26T08:26:45;154.27;;;17.52;;
21315;SDS011;10817;55.820;13.030;2023-01-26T08:29:12;204.43;;;17.80;;
21315;SDS011;10817;55.820;13.030;2023-01-26T08:31:39;180.80;;;17.77;;
21315;SDS011;10817;55.820;13.030;2023-01-26T08:34:07;140.70;;;17.98;;
21315;SDS011;10817;55.820;13.030;2023-01-26T08:36:34;152.45;;;21.80;;
21315;SDS011;10817;55.820;13.030;2023-01-26T08:39:03;137.55;;;18.38;;
21315;SDS011;10817;55.820;13.030;2023-01-26T08:41:30;158.07;;;21.10;;
21315;SDS011;10817;55.820;13.030;2023-01-26T08:43:58;130.55;;;19.85;;
21315;SDS011;10817;55.820;13.030;2023-01-26T08:46:25;90.47;;;19.70;;
21315;SDS011;10817;55.820;13.030;2023-01-26T08:48:52;123.68;;;21.55;;
21315;SDS011;10817;55.820;13.030;2023-01-26T08:51:19;135.10;;;21.52;;
21315;SDS011;10817;55.820;13.030;2023-01-26T08:53:47;112.20;;;21.25;;
21315;SDS011;10817;55.820;13.030;2023-01-26T08:56:15;86.68;;;19.83;;
21315;SDS011;10817;55.820;13.030;2023-01-26T08:58:43;107.50;;;21.92;;
21315;SDS011;10817;55.820;13.030;2023-01-26T09:01:11;101.78;;;21.67;;
21315;SDS011;10817;55.820;13.030;2023-01-26T09:03:39;111.43;;;21.30;;
21315;SDS011;10817;55.820;13.030;2023-01-26T09:06:07;103.25;;;22.67;;
21315;SDS011;10817;55.820;13.030;2023-01-26T09:08:35;101.50;;;22.27;;
21315;SDS011;10817;55.820;13.030;2023-01-26T09:11:03;101.60;;;21.63;;
21315;SDS011;10817;55.820;13.030;2023-01-26T09:13:32;87.97;;;19.85;;
21315;SDS011;10817;55.820;13.030;2023-01-26T09:16:01;87.25;;;20.90;;
21315;SDS011;10817;55.820;13.030;2023-01-26T09:18:29;90.93;;;21.63;;
21315;SDS011;10817;55.820;13.030;2023-01-26T09:21:00;106.68;;;22.00;;
21315;SDS011;10817;55.820;13.030;2023-01-26T09:23:27;96.57;;;21.23;;
21315;SDS011;10817;55.820;13.030;2023-01-26T09:25:55;98.55;;;22.00;;
21315;SDS011;10817;55.820;13.030;2023-01-26T09:28:22;109.50;;;22.13;;
21315;SDS011;10817;55.820;13.030;2023-01-26T09:30:50;101.05;;;21.42;;
21315;SDS011;10817;55.820;13.030;2023-01-26T09:33:17;105.00;;;21.60;;
21315;SDS011;10817;55.820;13.030;2023-01-26T09:35:47;106.10;;;23.42;;
21315;SDS011;10817;55.820;13.030;2023-01-26T09:38:14;113.45;;;23.00;;
21315;SDS011;10817;55.820;13.030;2023-01-26T09:40:43;107.68;;;23.98;;
21315;SDS011;10817;55.820;13.030;2023-01-26T09:43:26;110.30;;;24.45;;
21315;SDS011;10817;55.820;13.030;2023-01-26T09:46:02;105.22;;;22.90;;
21315;SDS011;10817;55.820;13.030;2023-01-26T09:48:34;102.68;;;23.70;;
21315;SDS011;10817;55.820;13.030;2023-01-26T09:51:04;125.47;;;22.98;;
21315;SDS011;10817;55.820;13.030;2023-01-26T09:53:38;111.18;;;23.25;;
21315;SDS011;10817;55.820;13.030;2023-01-26T09:56:09;132.57;;;23.65;;
21315;SDS011;10817;55.820;13.030;2023-01-26T09:58:39;115.50;;;24.30;;
21315;SDS011;10817;55.820;13.030;2023-01-26T10:01:12;127.03;;;24.27;;
21315;SDS011;10817;55.820;13.030;2023-01-26T10:03:42;114.72;;;22.80;;
21315;SDS011;10817;55.820;13.030;2023-01-26T10:06:13;127.63;;;23.58;;
21315;SDS011;10817;55.820;13.030;2023-01-26T10:09:03;117.63;;;23.40;;
21315;SDS011;10817;55.820;13.030;2023-01-26T10:11:33;116.28;;;23.70;;
21315;SDS011;10817;55.820;13.030;2023-01-26T10:14:03;108.95;;;22.35;;
21315;SDS011;10817;55.820;13.030;2023-01-26T10:16:34;115.85;;;23.08;;
21315;SDS011;10817;55.820;13.030;2023-01-26T10:19:02;103.97;;;21.88;;
21315;SDS011;10817;55.820;13.030;2023-01-26T10:21:32;90.00;;;21.58;;
21315;SDS011;10817;55.820;13.030;2023-01-26T10:24:00;123.32;;;24.08;;
21315;SDS011;10817;55.820;13.030;2023-01-26T10:26:29;93.20;;;20.63;;
21315;SDS011;10817;55.820;13.030;2023-01-26T10:28:56;80.95;;;19.48;;
21315;SDS011;10817;55.820;13.030;2023-01-26T10:31:25;88.97;;;20.35;;
21315;SDS011;10817;55.820;13.030;2023-01-26T10:33:55;91.03;;;20.77;;
21315;SDS011;10817;55.820;13.030;2023-01-26T10:36:23;88.35;;;20.27;;
21315;SDS011;10817;55.820;13.030;2023-01-26T10:38:52;86.57;;;21.02;;
21315;SDS011;10817;55.820;13.030;2023-01-26T10:41:23;92.10;;;19.30;;
21315;SDS011;10817;55.820;13.030;2023-01-26T10:43:54;96.95;;;20.42;;
21315;SDS011;10817;55.820;13.030;2023-01-26T10:46:23;100.55;;;19.80;;
21315;SDS011;10817;55.820;13.030;2023-01-26T10:48:50;79.68;;;18.73;;
21315;SDS011;10817;55.820;13.030;2023-01-26T10:51:24;77.47;;;18.10;;
21315;SDS011;10817;55.820;13.030;2023-01-26T10:56:33;71.63;;;15.50;;
21315;SDS011;10817;55.820;13.030;2023-01-26T10:59:02;70.10;;;15.65;;
21315;SDS011;10817;55.820;13.030;2023-01-26T11:01:39;68.43;;;15.80;;
21315;SDS011;10817;55.820;13.030;2023-01-26T11:04:17;67.07;;;17.58;;
21315;SDS011;10817;55.820;13.030;2023-01-26T11:06:45;61.65;;;15.30;;
21315;SDS011;10817;55.820;13.030;2023-01-26T11:09:16;70.32;;;15.23;;
21315;SDS011;10817;55.820;13.030;2023-01-26T11:11:53;37.45;;;12.20;;
21315;SDS011;10817;55.820;13.030;2023-01-26T11:14:20;50.60;;;12.30;;
21315;SDS011;10817;55.820;13.030;2023-01-26T11:16:49;42.95;;;12.18;;
21315;SDS011;10817;55.820;13.030;2023-01-26T11:19:21;51.00;;;13.35;;
21315;SDS011;10817;55.820;13.030;2023-01-26T11:21:57;43.30;;;11.50;;
21315;SDS011;10817;55.820;13.030;2023-01-26T11:24:25;36.95;;;11.45;;
21315;SDS011;10817;55.820;13.030;2023-01-26T11:27:05;35.33;;;11.73;;
21315;SDS011;10817;55.820;13.030;2023-01-26T11:29:37;46.45;;;12.45;;
21315;SDS011;10817;55.820;13.030;2023-01-26T11:32:08;48.95;;;12.80;;
21315;SDS011;10817;55.820;13.030;2023-01-26T11:34:38;38.10;;;12.48;;
21315;SDS011;10817;55.820;13.030;2023-01-26T11:37:14;44.35;;;12.60;;
21315;SDS011;10817;55.820;13.030;2023-01-26T11:39:51;37.70;;;11.30;;
21315;SDS011;10817;55.820;13.030;2023-01-26T11:42:21;38.72;;;10.90;;
21315;SDS011;10817;55.820;13.030;2023-01-26T11:44:57;44.45;;;12.30;;
21315;SDS011;10817;55.820;13.030;2023-01-26T11:47:42;41.22;;;11.43;;
21315;SDS011;10817;55.820;13.030;2023-01-26T11:50:16;40.08;;;11.73;;
21315;SDS011;10817;55.820;13.030;2023-01-26T11:52:47;57.40;;;12.48;;
21315;SDS011;10817;55.820;13.030;2023-01-26T11:55:17;40.85;;;12.32;;
21315;SDS011;10817;55.820;13.030;2023-01-26T11:57:52;45.58;;;12.23;;
21315;SDS011;10817;55.820;13.030;2023-01-26T12:00:22;39.33;;;12.70;;
21315;SDS011;10817;55.820;13.030;2023-01-26T12:02:52;30.40;;;11.18;;
21315;SDS011;10817;55.820;13.030;2023-01-26T12:05:22;34.40;;;11.95;;
21315;SDS011;10817;55.820;13.030;2023-01-26T12:07:53;33.83;;;11.52;;
21315;SDS011;10817;55.820;13.030;2023-01-26T12:10:22;32.30;;;10.45;;
21315;SDS011;10817;55.820;13.030;2023-01-26T12:12:52;39.05;;;12.23;;
21315;SDS011;10817;55.820;13.030;2023-01-26T12:15:23;28.98;;;10.55;;
21315;SDS011;10817;55.820;13.030;2023-01-26T12:17:57;31.65;;;11.18;;
21315;SDS011;10817;55.820;13.030;2023-01-26T12:20:26;31.27;;;11.05;;
21315;SDS011;10817;55.820;13.030;2023-01-26T12:22:59;39.05;;;12.60;;
21315;SDS011;10817;55.820;13.030;2023-01-26T12:25:29;35.58;;;11.27;;
21315;SDS011;10817;55.820;13.030;2023-01-26T12:28:00;38.38;;;12.02;;
21315;SDS011;10817;55.820;13.030;2023-01-26T12:30:33;31.00;;;11.90;;
21315;SDS011;10817;55.820;13.030;2023-01-26T12:33:01;28.98;;;10.75;;
21315;SDS011;10817;55.820;13.030;2023-01-26T12:35:32;32.05;;;11.32;;
21315;SDS011;10817;55.820;13.030;2023-01-26T12:38:06;24.80;;;10.07;;
21315;SDS011;10817;55.820;13.030;2023-01-26T12:40:38;27.38;;;11.18;;
21315;SDS011;10817;55.820;13.030;2023-01-26T12:43:13;26.80;;;10.73;;
21315;SDS011;10817;55.820;13.030;2023-01-26T12:45:42;18.70;;;8.35;;
21315;SDS011;10817;55.820;13.030;2023-01-26T12:48:12;19.20;;;7.70;;
21315;SDS011;10817;55.820;13.030;2023-01-26T12:50:42;14.38;;;7.93;;
21315;SDS011;10817;55.820;13.030;2023-01-26T12:53:14;11.77;;;6.40;;
21315;SDS011;10817;55.820;13.030;2023-01-26T12:55:43;8.02;;;4.78;;
21315;SDS011;10817;55.820;13.030;2023-01-26T12:58:13;7.05;;;3.80;;
21315;SDS011;10817;55.820;13.030;2023-01-26T13:00:45;5.05;;;2.60;;
21315;SDS011;10817;55.820;13.030;2023-01-26T13:03:17;5.97;;;3.20;;
21315;SDS011;10817;55.820;13.030;2023-01-26T13:05:53;5.13;;;3.20;;
21315;SDS011;10817;55.820;13.030;2023-01-26T13:11:08;5.93;;;3.83;;
21315;SDS011;10817;55.820;13.030;2023-01-26T13:16:30;3.10;;;1.70;;
21315;SDS011;10817;55.820;13.030;2023-01-26T13:18:58;6.97;;;3.75;;
21315;SDS011;10817;55.820;13.030;2023-01-26T13:21:26;5.30;;;3.03;;
21315;SDS011;10817;55.820;13.030;2023-01-26T13:23:54;3.17;;;2.53;;
21315;SDS011;10817;55.820;13.030;2023-01-26T13:31:58;1.83;;;1.40;;
21315;SDS011;10817;55.820;13.030;2023-01-26T13:34:27;1.85;;;1.50;;
21315;SDS011;10817;55.820;13.030;2023-01-26T13:36:56;3.08;;;1.60;;
21315;SDS011;10817;55.820;13.030;2023-01-26T13:39:26;1.60;;;1.50;;
21315;SDS011;10817;55.820;13.030;2023-01-26T13:41:55;1.80;;;1.58;;
21315;SDS011;10817;55.820;13.030;2023-01-26T13:44:24;1.67;;;1.42;;
21315;SDS011;10817;55.820;13.030;2023-01-26T13:46:54;1.63;;;1.48;;
21315;SDS011;10817;55.820;13.030;2023-01-26T13:49:24;2.33;;;1.70;;
21315;SDS011;10817;55.820;13.030;2023-01-26T13:51:51;2.15;;;1.42;;
21315;SDS011;10817;55.820;13.030;2023-01-26T13:54:25;1.67;;;1.42;;
21315;SDS011;10817;55.820;13.030;2023-01-26T13:57:00;2.10;;;1.40;;
21315;SDS011;10817;55.820;13.030;2023-01-26T13:59:27;2.10;;;1.63;;
21315;SDS011;10817;55.820;13.030;2023-01-26T14:01:59;2.10;;;1.85;;
21315;SDS011;10817;55.820;13.030;2023-01-26T14:04:27;2.65;;;2.20;;
21315;SDS011;10817;55.820;13.030;2023-01-26T14:06:56;3.30;;;2.20;;
21315;SDS011;10817;55.820;13.030;2023-01-26T14:09:24;3.78;;;2.33;;
21315;SDS011;10817;55.820;13.030;2023-01-26T14:11:54;2.90;;;2.15;;
21315;SDS011;10817;55.820;13.030;2023-01-26T14:14:23;1.98;;;1.65;;
21315;SDS011;10817;55.820;13.030;2023-01-26T14:16:51;3.53;;;1.77;;
21315;SDS011;10817;55.820;13.030;2023-01-26T14:19:20;2.20;;;2.00;;
21315;SDS011;10817;55.820;13.030;2023-01-26T14:21:48;3.83;;;2.20;;
21315;SDS011;10817;55.820;13.030;2023-01-26T14:24:16;2.03;;;1.67;;
21315;SDS011;10817;55.820;13.030;2023-01-26T14:26:45;3.40;;;2.10;;
21315;SDS011;10817;55.820;13.030;2023-01-26T14:31:43;3.97;;;2.00;;
21315;SDS011;10817;55.820;13.030;2023-01-26T14:34:13;2.17;;;1.98;;
21315;SDS011;10817;55.820;13.030;2023-01-26T14:36:45;3.80;;;2.08;;
21315;SDS011;10817;55.820;13.030;2023-01-26T14:39:14;4.03;;;2.50;;
21315;SDS011;10817;55.820;13.030;2023-01-26T14:41:42;3.75;;;2.75;;
21315;SDS011;10817;55.820;13.030;2023-01-26T14:44:09;3.15;;;2.38;;
21315;SDS011;10817;55.820;13.030;2023-01-26T14:46:38;3.20;;;2.47;;